Impacts METAR Board INFO
IDs:

KSFO - San Francisco Intl, CA, US

Updated at: 0428 UTC 21 Jan 2018
Potential Impact None Slight Moderate High
Time20/16Z 20/17Z 20/18Z 20/19Z 20/20Z 20/21Z 20/22Z 20/23Z 21/00Z 21/01Z 21/02Z 21/03Z 21/04Z
VIS10 10 10 10 10 10 10 10 10 10 10 10 10
CIG-- -- -- -- -- -- -- -- -- -- -- -- --
CoverCLRCLRCLRCLRFEWFEWFEWFEWSCTSCTFEWCLRCLR
FltCatVFRVFRVFRVFRVFRVFRVFRVFRVFRVFRVFRVFRVFR
WX--------------------------
WDir360030405050280300290280290280280
WSpd5 0 4 4 4 4 11 11 12 13 10 10 10
WGst-- -- -- -- -- -- -- -- -- -- -- -- --
Raw hourly METARs
KSFO 201556Z 36005KT 10SM CLR 09/04 A3016 RMK AO2 SLP212 T00940039
KSFO 201656Z 00000KT 10SM CLR 10/04 A3018 RMK AO2 SLP219 T01000044
KSFO 201756Z 03004KT 10SM CLR 11/04 A3020 RMK AO2 SLP226 T01060039 10106 20078 53020
KSFO 201856Z 04004KT 10SM CLR 11/04 A3021 RMK AO2 SLP228 T01060044
KSFO 201956Z 05004KT 10SM FEW027 11/04 A3018 RMK AO2 SLP221 T01110044
KSFO 202056Z 05004KT 10SM FEW027 12/04 A3017 RMK AO2 SLP218 T01170044 58008
KSFO 202156Z 28011KT 10SM FEW028 13/03 A3017 RMK AO2 SLP215 T01330033
KSFO 202256Z 30011KT 10SM FEW025 FEW200 13/04 A3018 RMK AO2 SLP218 T01280044
KSFO 202356Z 29012KT 10SM FEW025 SCT200 13/04 A3019 RMK AO2 SLP222 T01280044 10133 20106 53005
KSFO 210056Z 28013KT 10SM FEW023 SCT200 12/06 A3020 RMK AO2 SLP227 T01170056
KSFO 210156Z 29010KT 10SM FEW023 FEW200 11/06 A3021 RMK AO2 SLP230 T01110056
KSFO 210256Z 28010KT 10SM CLR 11/06 A3022 RMK AO2 SLP234 T01060056 51012
KSFO 210356Z 28010KT 10SM CLR 10/05 A3023 RMK AO2 SLP236 T01000050